Time;durP1;ratioP1;P1;durP2;ratioP2;P2;SDS_P1;SDS_P2;PMS_P1;PMS_P2;Temp;Humidity;BMP_temperature;BMP_pressure;BME280_temperature;BME280_humidity;BME280_pressure;Samples;Min_cycle;Max_cycle;Signal;HPM_P1;HPM_P2
2021/08/16 00:01:40;;;;;;;2.80;1.60;;;25.40;62.20;;;;;;4964410;28;20403;-62
2021/08/16 00:04:06;;;;;;;2.58;1.60;;;25.40;62.20;;;;;;4964260;28;20408;-63
2021/08/16 00:06:32;;;;;;;2.90;1.63;;;25.40;62.20;;;;;;4965510;28;20491;-63
2021/08/16 00:08:57;;;;;;;2.80;1.73;;;25.40;62.30;;;;;;4965246;28;20931;-63
2021/08/16 00:11:23;;;;;;;3.47;1.70;;;25.40;62.30;;;;;;4966262;28;20403;-63
2021/08/16 00:13:48;;;;;;;3.00;1.73;;;25.40;62.30;;;;;;4966862;28;20463;-63
2021/08/16 00:16:14;;;;;;;2.90;1.77;;;25.40;62.40;;;;;;4966469;28;20838;-63
2021/08/16 00:18:40;;;;;;;2.53;1.60;;;25.40;62.40;;;;;;5000020;28;20415;-63
2021/08/16 00:21:05;;;;;;;2.90;1.70;;;25.40;62.40;;;;;;4962613;28;20507;-64
2021/08/16 00:23:31;;;;;;;2.22;1.40;;;25.40;62.50;;;;;;4963767;28;20411;-63
2021/08/16 00:25:57;;;;;;;2.60;1.60;;;25.40;62.50;;;;;;4963565;28;20408;-63
2021/08/16 00:28:22;;;;;;;3.00;1.70;;;25.30;62.50;;;;;;4965964;28;21398;-63
2021/08/16 00:30:48;;;;;;;2.42;1.77;;;25.40;62.60;;;;;;4968095;28;20407;-63
2021/08/16 00:33:14;;;;;;;3.47;1.80;;;25.30;62.60;;;;;;4972556;28;20392;-63
2021/08/16 00:35:40;;;;;;;2.30;1.40;;;25.40;62.60;;;;;;4969420;28;20440;-63
2021/08/16 00:38:06;;;;;;;3.57;1.73;;;25.40;62.70;;;;;;4967905;28;20889;-63
2021/08/16 00:40:32;;;;;;;2.40;1.63;;;25.30;62.60;;;;;;4999663;28;20428;-63
2021/08/16 00:42:58;;;;;;;2.78;1.60;;;25.40;62.70;;;;;;5001693;28;20396;-63
2021/08/16 00:45:25;;;;;;;2.65;1.58;;;25.30;62.70;;;;;;4966219;28;20423;-63
2021/08/16 00:47:51;;;;;;;3.50;1.45;;;25.30;62.70;;;;;;4973513;28;20426;-63
2021/08/16 00:50:17;;;;;;;4.70;1.73;;;25.30;62.70;;;;;;4972622;28;20774;-63
2021/08/16 00:52:43;;;;;;;2.38;1.50;;;25.30;62.70;;;;;;4972784;28;20442;-63
2021/08/16 00:55:11;;;;;;;3.20;1.60;;;25.30;62.80;;;;;;4972685;28;20401;-63
2021/08/16 00:57:38;;;;;;;2.88;1.73;;;25.30;62.80;;;;;;4974198;28;20403;-63
2021/08/16 01:00:05;;;;;;;2.85;1.60;;;25.30;63.20;;;;;;4974399;28;20420;-63
2021/08/16 01:02:32;;;;;;;3.10;1.58;;;25.30;62.80;;;;;;4976578;28;20390;-63
2021/08/16 01:05:00;;;;;;;4.25;1.50;;;25.30;62.70;;;;;;4979557;28;20473;-63
2021/08/16 01:07:26;;;;;;;4.90;1.50;;;25.30;62.90;;;;;;4974907;28;20394;-63
2021/08/16 01:09:51;;;;;;;3.25;1.42;;;25.40;63.10;;;;;;4974386;28;20492;-63
2021/08/16 01:12:17;;;;;;;2.57;1.60;;;25.40;62.90;;;;;;4966293;28;20443;-62
2021/08/16 01:14:43;;;;;;;3.10;1.50;;;25.30;62.80;;;;;;4977534;28;20945;-63
2021/08/16 01:17:10;;;;;;;3.10;1.73;;;25.30;62.90;;;;;;4971731;28;21244;-63
2021/08/16 01:19:36;;;;;;;3.30;1.40;;;25.40;63.00;;;;;;4970574;28;21053;-63
2021/08/16 01:22:02;;;;;;;2.37;1.53;;;25.40;62.90;;;;;;5003828;28;20408;-63
2021/08/16 01:24:28;;;;;;;2.45;1.40;;;25.30;62.90;;;;;;4977171;28;20824;-63
2021/08/16 01:26:53;;;;;;;2.57;1.50;;;25.30;62.90;;;;;;4972977;28;20856;-63
2021/08/16 01:29:21;;;;;;;2.30;1.50;;;25.30;62.90;;;;;;4970862;28;20398;-63
2021/08/16 01:31:47;;;;;;;2.25;1.40;;;25.30;62.90;;;;;;4977841;28;20445;-63
2021/08/16 01:34:13;;;;;;;2.15;1.50;;;25.30;62.80;;;;;;4974437;28;20388;-63
2021/08/16 01:36:44;;;;;;;3.42;1.63;;;25.30;62.80;;;;;;4966377;28;20406;-63
2021/08/16 01:39:09;;;;;;;2.33;1.30;;;25.30;62.90;;;;;;4970874;28;20831;-63
2021/08/16 01:41:35;;;;;;;2.70;1.50;;;25.30;62.90;;;;;;4970471;28;20388;-63
2021/08/16 01:44:01;;;;;;;3.28;1.50;;;25.30;62.90;;;;;;4968649;28;20396;-63
2021/08/16 01:46:27;;;;;;;2.00;1.30;;;25.30;62.90;;;;;;4964884;28;20431;-63
2021/08/16 01:48:53;;;;;;;2.22;1.42;;;25.30;62.90;;;;;;4972646;28;20868;-62
2021/08/16 01:51:19;;;;;;;2.05;1.35;;;25.30;62.90;;;;;;5001448;28;20411;-63
2021/08/16 01:53:45;;;;;;;4.05;1.65;;;25.30;63.00;;;;;;4971526;28;20396;-62
2021/08/16 01:56:11;;;;;;;2.83;1.40;;;25.30;63.00;;;;;;4977198;28;20901;-63
2021/08/16 01:58:37;;;;;;;2.92;1.50;;;25.30;63.00;;;;;;4972411;28;20481;-63
2021/08/16 02:01:03;;;;;;;2.75;1.50;;;25.30;63.00;;;;;;4966001;28;20399;-63
2021/08/16 02:03:28;;;;;;;2.03;1.30;;;25.30;63.10;;;;;;4968697;28;20716;-63
2021/08/16 02:05:54;;;;;;;2.67;1.38;;;25.30;63.00;;;;;;4972077;28;20907;-63
2021/08/16 02:08:20;;;;;;;2.28;1.40;;;25.30;63.10;;;;;;4971906;28;20886;-63
2021/08/16 02:10:45;;;;;;;2.25;1.40;;;25.30;63.10;;;;;;5001379;28;20409;-63
2021/08/16 02:13:11;;;;;;;2.40;1.50;;;25.30;63.10;;;;;;4973960;28;20399;-62
2021/08/16 02:15:38;;;;;;;2.20;1.40;;;25.30;63.10;;;;;;4973809;28;20466;-63
2021/08/16 02:18:04;;;;;;;2.95;1.50;;;25.30;63.00;;;;;;4971410;28;20444;-63
2021/08/16 02:20:30;;;;;;;1.50;1.25;;;25.30;63.10;;;;;;4968450;28;20422;-63
2021/08/16 02:22:55;;;;;;;2.65;1.50;;;25.30;63.00;;;;;;4971254;28;20418;-63
2021/08/16 02:25:21;;;;;;;2.47;1.60;;;25.30;63.00;;;;;;5003156;28;21420;-63
2021/08/16 02:27:49;;;;;;;2.25;1.30;;;25.30;63.10;;;;;;4975877;28;20387;-63
2021/08/16 02:30:17;;;;;;;1.90;1.33;;;25.30;63.20;;;;;;4975364;28;20835;-63
2021/08/16 02:32:44;;;;;;;2.70;1.35;;;25.20;63.10;;;;;;5000874;28;20419;-62
2021/08/16 02:35:11;;;;;;;1.90;1.30;;;25.30;63.20;;;;;;4971229;28;20408;-62
2021/08/16 02:37:37;;;;;;;2.90;1.48;;;25.20;63.10;;;;;;4976389;28;20887;-62
2021/08/16 02:40:04;;;;;;;2.20;1.40;;;25.20;63.10;;;;;;4976680;28;20430;-62
2021/08/16 02:42:29;;;;;;;2.70;1.33;;;25.30;63.20;;;;;;4976969;28;20383;-62
2021/08/16 02:44:55;;;;;;;2.63;1.58;;;25.20;63.10;;;;;;4966856;28;20482;-63
2021/08/16 02:47:22;;;;;;;2.47;1.47;;;25.20;63.10;;;;;;4971602;28;20396;-62
2021/08/16 02:49:49;;;;;;;2.50;1.50;;;25.20;63.10;;;;;;4963628;28;21401;-62
2021/08/16 02:52:16;;;;;;;2.50;1.35;;;25.20;63.10;;;;;;4964057;28;20753;-63
2021/08/16 02:54:42;;;;;;;1.92;1.33;;;25.20;63.10;;;;;;4970501;28;20771;-63
2021/08/16 02:57:08;;;;;;;2.35;1.40;;;25.20;63.20;;;;;;4972320;28;20396;-62
2021/08/16 02:59:34;;;;;;;2.17;1.40;;;25.20;63.30;;;;;;4963507;28;20471;-63
2021/08/16 03:01:59;;;;;;;2.10;1.20;;;25.20;63.20;;;;;;4970104;28;20394;-62
2021/08/16 03:04:25;;;;;;;2.67;1.43;;;25.20;63.20;;;;;;5001371;28;20494;-63
2021/08/16 03:06:51;;;;;;;2.00;1.37;;;25.20;63.20;;;;;;4970308;28;20426;-63
2021/08/16 03:09:16;;;;;;;2.85;1.27;;;25.20;63.20;;;;;;4974584;28;20395;-63
2021/08/16 03:11:42;;;;;;;2.33;1.30;;;25.20;63.50;;;;;;4974669;28;20414;-62
2021/08/16 03:14:08;;;;;;;2.53;1.38;;;25.20;63.30;;;;;;4971969;28;20728;-62
2021/08/16 03:16:33;;;;;;;2.33;1.30;;;25.20;64.30;;;;;;4970985;28;20435;-62
2021/08/16 03:18:59;;;;;;;2.05;1.30;;;25.20;63.50;;;;;;4964753;28;20412;-62
2021/08/16 03:21:24;;;;;;;4.37;1.60;;;25.20;63.40;;;;;;4976423;28;20458;-63
2021/08/16 03:23:50;;;;;;;3.30;1.50;;;25.20;64.90;;;;;;5003854;28;20917;-63
2021/08/16 03:26:16;;;;;;;2.90;1.42;;;25.30;64.80;;;;;;4968034;28;20821;-62
2021/08/16 03:28:42;;;;;;;3.30;1.60;;;25.30;64.90;;;;;;4971355;28;20876;-62
2021/08/16 03:31:08;;;;;;;3.33;1.55;;;25.30;65.20;;;;;;4971632;28;20975;-62
2021/08/16 03:33:33;;;;;;;2.20;1.52;;;25.40;65.30;;;;;;4965444;28;20474;-62
2021/08/16 03:35:59;;;;;;;3.28;1.58;;;25.40;65.10;;;;;;4965635;28;20483;-63
2021/08/16 03:38:25;;;;;;;2.80;1.50;;;25.40;64.50;;;;;;4967591;28;20573;-62
2021/08/16 03:40:51;;;;;;;3.27;1.57;;;25.40;65.40;;;;;;4965916;28;20468;-63
2021/08/16 03:43:16;;;;;;;3.00;1.65;;;25.40;65.30;;;;;;4965141;28;20412;-63
2021/08/16 03:45:43;;;;;;;3.07;1.83;;;25.40;65.00;;;;;;4965950;28;20507;-63
2021/08/16 03:48:09;;;;;;;3.67;1.50;;;25.40;65.10;;;;;;4966022;28;20396;-63
2021/08/16 03:50:34;;;;;;;3.05;1.65;;;25.40;65.00;;;;;;4970083;28;20454;-63
2021/08/16 03:53:00;;;;;;;2.43;1.43;;;25.40;64.50;;;;;;4965287;28;20398;-62
2021/08/16 03:55:26;;;;;;;2.55;1.60;;;25.40;64.20;;;;;;4969768;28;20396;-62
2021/08/16 03:57:51;;;;;;;3.73;1.60;;;25.30;64.00;;;;;;5000494;28;20507;-62
2021/08/16 04:00:17;;;;;;;2.50;1.60;;;25.30;63.70;;;;;;4969215;28;20431;-62
2021/08/16 04:02:45;;;;;;;3.35;1.55;;;25.30;63.70;;;;;;4975948;28;20386;-63
2021/08/16 04:05:11;;;;;;;4.25;2.15;;;25.30;62.30;;;;;;4969942;28;20441;-62
2021/08/16 04:07:37;;;;;;;5.68;2.05;;;25.30;62.90;;;;;;4969679;28;20386;-63
2021/08/16 04:10:04;;;;;;;6.10;2.10;;;25.30;62.90;;;;;;4970231;28;20700;-62
2021/08/16 04:12:30;;;;;;;3.42;1.90;;;25.30;62.30;;;;;;4969564;28;20455;-63
2021/08/16 04:14:55;;;;;;;5.63;2.00;;;25.20;62.30;;;;;;4969741;28;20411;-62
2021/08/16 04:17:21;;;;;;;4.03;1.90;;;25.30;62.10;;;;;;4973810;28;20398;-63
2021/08/16 04:19:46;;;;;;;3.83;1.90;;;25.30;62.50;;;;;;4973486;28;20473;-62
2021/08/16 04:22:12;;;;;;;4.33;1.70;;;25.20;62.40;;;;;;4971884;28;20385;-63
2021/08/16 04:24:38;;;;;;;3.35;1.73;;;25.20;61.80;;;;;;4969623;28;20413;-62
2021/08/16 04:27:04;;;;;;;4.43;1.80;;;25.20;61.80;;;;;;4969184;28;20403;-62
2021/08/16 04:29:30;;;;;;;2.90;1.70;;;25.30;62.00;;;;;;4969275;28;20400;-62
2021/08/16 04:31:56;;;;;;;2.95;1.52;;;25.20;62.10;;;;;;4968029;28;20408;-62
2021/08/16 04:34:22;;;;;;;3.80;1.70;;;25.20;62.10;;;;;;5001005;28;20399;-62
2021/08/16 04:36:48;;;;;;;3.10;1.65;;;25.20;62.20;;;;;;4973437;28;20410;-62
2021/08/16 04:39:14;;;;;;;4.03;1.80;;;25.20;62.30;;;;;;4963655;28;20423;-63
2021/08/16 04:41:39;;;;;;;3.97;1.50;;;25.20;62.40;;;;;;4969850;28;20400;-62
2021/08/16 04:44:05;;;;;;;3.45;1.90;;;25.20;62.40;;;;;;4969039;28;20475;-62
2021/08/16 04:46:31;;;;;;;4.20;1.67;;;25.20;62.40;;;;;;4968979;28;20754;-62
2021/08/16 04:48:57;;;;;;;2.83;1.50;;;25.30;62.50;;;;;;4966902;28;20390;-62
2021/08/16 04:51:22;;;;;;;3.90;1.73;;;25.20;62.50;;;;;;4971123;28;20399;-63
2021/08/16 04:53:48;;;;;;;2.90;1.40;;;25.20;62.50;;;;;;4969694;28;20419;-62
2021/08/16 04:56:14;;;;;;;2.97;1.77;;;25.20;62.50;;;;;;4969174;28;20406;-62
2021/08/16 04:58:39;;;;;;;4.20;1.80;;;25.20;62.50;;;;;;4974216;28;20400;-62
2021/08/16 05:01:05;;;;;;;5.00;1.60;;;25.20;62.50;;;;;;4969730;28;20404;-63
2021/08/16 05:03:30;;;;;;;3.53;1.70;;;25.20;62.60;;;;;;4961800;28;20746;-62
2021/08/16 05:06:04;;;;;;;2.40;1.48;;;25.20;62.60;;;;;;4969834;28;20810;-62
2021/08/16 05:08:29;;;;;;;2.30;1.50;;;25.20;62.60;;;;;;4961761;28;20442;-62
2021/08/16 05:10:55;;;;;;;2.70;1.70;;;25.20;63.20;;;;;;4975025;28;20489;-62
2021/08/16 05:13:21;;;;;;;2.07;1.60;;;25.20;62.60;;;;;;4970632;28;20388;-62
2021/08/16 05:15:46;;;;;;;3.05;1.63;;;25.20;62.60;;;;;;4971764;28;20813;-62
2021/08/16 05:18:12;;;;;;;2.77;1.50;;;25.20;62.60;;;;;;4972501;28;20391;-63
2021/08/16 05:20:38;;;;;;;2.95;1.50;;;25.20;62.70;;;;;;4979076;28;20435;-62
2021/08/16 05:23:05;;;;;;;2.75;1.60;;;25.20;62.70;;;;;;4971082;28;20384;-62
2021/08/16 05:25:31;;;;;;;2.70;1.60;;;25.20;62.70;;;;;;4966083;28;20896;-63
2021/08/16 05:27:56;;;;;;;2.50;1.70;;;25.10;62.60;;;;;;4969476;28;20507;-63
2021/08/16 05:30:22;;;;;;;2.30;1.47;;;25.10;62.60;;;;;;4971852;28;21220;-62
2021/08/16 05:32:48;;;;;;;3.58;1.70;;;25.10;62.60;;;;;;4969981;28;20427;-62
2021/08/16 05:35:15;;;;;;;2.55;1.52;;;25.10;62.60;;;;;;4974279;28;20408;-62
2021/08/16 05:37:41;;;;;;;2.80;1.48;;;25.10;62.60;;;;;;4975065;28;20511;-63
2021/08/16 05:40:07;;;;;;;2.30;1.30;;;25.10;62.70;;;;;;4968218;28;20914;-62
2021/08/16 05:42:34;;;;;;;2.65;1.58;;;25.10;62.70;;;;;;4971545;28;20378;-62
2021/08/16 05:45:02;;;;;;;2.83;1.50;;;25.10;62.70;;;;;;4976062;28;20621;-62
2021/08/16 05:47:28;;;;;;;2.65;1.40;;;25.10;62.70;;;;;;4972491;28;20387;-63
2021/08/16 05:49:54;;;;;;;2.13;1.35;;;25.10;62.70;;;;;;4972504;28;20451;-62
2021/08/16 05:52:19;;;;;;;2.20;1.42;;;25.10;62.70;;;;;;4973750;28;20396;-63
2021/08/16 05:54:45;;;;;;;2.40;1.50;;;25.10;62.80;;;;;;4971825;28;20411;-62
2021/08/16 05:57:11;;;;;;;2.58;1.48;;;25.10;62.70;;;;;;4974403;28;20491;-62
2021/08/16 05:59:36;;;;;;;3.00;1.50;;;25.10;62.70;;;;;;4977656;28;20976;-62
2021/08/16 06:02:02;;;;;;;2.33;1.60;;;25.10;62.70;;;;;;4972327;28;20415;-63
2021/08/16 06:04:28;;;;;;;2.50;1.63;;;25.10;62.70;;;;;;4971843;28;20825;-62
2021/08/16 06:06:53;;;;;;;2.80;1.55;;;25.10;62.70;;;;;;4971612;28;20394;-62
2021/08/16 06:09:19;;;;;;;2.90;1.60;;;25.10;62.70;;;;;;4968185;28;20408;-62
2021/08/16 06:11:45;;;;;;;2.17;1.30;;;25.10;62.70;;;;;;4971347;28;20906;-63
2021/08/16 06:14:10;;;;;;;1.92;1.50;;;25.10;62.80;;;;;;4973344;28;20502;-62
2021/08/16 06:16:37;;;;;;;2.40;1.50;;;25.10;62.80;;;;;;4971852;28;20479;-62
2021/08/16 06:19:03;;;;;;;2.20;1.50;;;25.10;62.80;;;;;;4971008;28;20765;-62
2021/08/16 06:21:28;;;;;;;2.20;1.50;;;25.10;62.80;;;;;;5005984;28;20411;-62
2021/08/16 06:23:54;;;;;;;1.90;1.33;;;25.10;62.80;;;;;;4971811;28;21354;-62
2021/08/16 06:26:20;;;;;;;1.98;1.40;;;25.10;62.80;;;;;;4973889;28;20828;-62
2021/08/16 06:28:45;;;;;;;2.70;1.50;;;25.10;62.80;;;;;;4971789;28;20406;-62
2021/08/16 06:31:11;;;;;;;2.45;1.60;;;25.10;62.90;;;;;;4969840;28;20388;-63
2021/08/16 06:33:40;;;;;;;1.98;1.33;;;25.10;62.80;;;;;;4972520;28;20404;-63
2021/08/16 06:36:06;;;;;;;1.90;1.30;;;25.10;62.80;;;;;;4973169;28;20948;-62
2021/08/16 06:38:32;;;;;;;1.88;1.60;;;25.10;62.80;;;;;;4976481;28;20489;-62
2021/08/16 06:41:00;;;;;;;2.75;1.42;;;25.10;62.90;;;;;;4976833;28;20938;-62
2021/08/16 06:43:27;;;;;;;2.23;1.50;;;25.10;62.90;;;;;;4971221;28;20388;-62
2021/08/16 06:45:53;;;;;;;2.53;1.42;;;25.10;62.90;;;;;;4971363;28;20905;-63
2021/08/16 06:48:19;;;;;;;2.53;1.50;;;25.10;62.90;;;;;;4995571;28;20472;-62
2021/08/16 06:50:45;;;;;;;2.33;1.53;;;25.10;62.90;;;;;;4976525;28;20398;-62
2021/08/16 06:53:13;;;;;;;2.55;1.50;;;25.10;62.90;;;;;;4970678;28;20402;-62
2021/08/16 06:55:42;;;;;;;2.22;1.48;;;25.00;62.80;;;;;;4971942;28;20403;-63
2021/08/16 06:58:08;;;;;;;2.10;1.40;;;25.00;62.80;;;;;;5002534;28;20480;-62
2021/08/16 07:00:38;;;;;;;1.60;1.30;;;25.10;62.90;;;;;;4971768;28;20973;-62
2021/08/16 07:03:04;;;;;;;2.30;1.58;;;25.00;62.80;;;;;;4965304;28;20380;-62
2021/08/16 07:05:30;;;;;;;2.47;1.40;;;25.00;62.80;;;;;;4970408;28;20407;-63
2021/08/16 07:07:55;;;;;;;2.00;1.40;;;25.00;62.80;;;;;;4976445;28;20394;-62
2021/08/16 07:10:21;;;;;;;2.20;1.50;;;25.10;62.90;;;;;;4972680;28;20392;-62
2021/08/16 07:12:47;;;;;;;2.70;1.57;;;25.00;62.80;;;;;;4973454;28;20396;-62
2021/08/16 07:15:13;;;;;;;1.90;1.30;;;25.10;62.90;;;;;;4970297;28;21351;-62
2021/08/16 07:17:39;;;;;;;2.60;1.50;;;25.00;62.90;;;;;;4970544;28;20493;-62
2021/08/16 07:20:06;;;;;;;2.40;1.60;;;25.10;62.90;;;;;;4977015;28;20496;-62
2021/08/16 07:22:33;;;;;;;1.90;1.50;;;25.00;62.90;;;;;;4968471;28;20392;-63
2021/08/16 07:24:59;;;;;;;2.45;1.48;;;25.10;63.00;;;;;;4970552;28;20405;-63
2021/08/16 07:27:25;;;;;;;2.25;1.50;;;25.00;62.90;;;;;;4975959;28;20461;-63
2021/08/16 07:29:50;;;;;;;2.10;1.40;;;25.00;62.90;;;;;;4973259;28;20398;-63
2021/08/16 07:32:16;;;;;;;1.90;1.40;;;25.00;62.90;;;;;;4963676;28;20400;-62
2021/08/16 07:34:41;;;;;;;2.25;1.50;;;25.00;62.90;;;;;;4964301;28;20406;-63
2021/08/16 07:37:09;;;;;;;2.37;1.70;;;25.00;62.90;;;;;;4970103;28;20467;-63
2021/08/16 07:39:35;;;;;;;1.80;1.40;;;25.00;62.90;;;;;;4972597;28;20433;-63
2021/08/16 07:42:01;;;;;;;1.83;1.30;;;25.00;62.90;;;;;;4969757;28;20399;-62
2021/08/16 07:44:26;;;;;;;2.35;1.40;;;25.00;63.00;;;;;;4996113;28;20392;-62
2021/08/16 07:46:52;;;;;;;2.10;1.50;;;25.00;62.90;;;;;;4970602;28;20408;-63
2021/08/16 07:49:18;;;;;;;2.42;1.50;;;25.00;63.00;;;;;;4970119;28;20396;-62
2021/08/16 07:51:43;;;;;;;2.78;1.70;;;25.00;63.00;;;;;;4969693;28;20401;-63
2021/08/16 07:54:09;;;;;;;2.00;1.57;;;25.00;63.00;;;;;;5004980;28;20444;-63
2021/08/16 07:56:35;;;;;;;2.08;1.50;;;25.00;63.00;;;;;;4973460;28;20382;-63
2021/08/16 07:59:01;;;;;;;2.67;1.40;;;25.00;62.90;;;;;;4961993;28;20999;-62
2021/08/16 08:01:27;;;;;;;2.27;1.40;;;25.00;63.00;;;;;;4969035;28;20918;-63
2021/08/16 08:03:52;;;;;;;2.35;1.40;;;25.00;63.00;;;;;;4968547;28;20991;-62
2021/08/16 08:06:19;;;;;;;2.03;1.23;;;25.00;63.00;;;;;;4968189;28;20781;-62
2021/08/16 08:08:45;;;;;;;2.17;1.50;;;25.00;63.00;;;;;;4969672;28;20889;-62
2021/08/16 08:11:10;;;;;;;2.05;1.50;;;25.00;63.60;;;;;;4962972;28;20407;-62
2021/08/16 08:13:38;;;;;;;1.93;1.43;;;25.00;63.00;;;;;;4975016;28;20795;-62
2021/08/16 08:16:04;;;;;;;2.58;1.50;;;25.00;63.00;;;;;;4969078;28;20924;-62
2021/08/16 08:18:30;;;;;;;2.60;1.60;;;25.00;63.00;;;;;;4968984;28;20397;-62
2021/08/16 08:20:55;;;;;;;2.10;1.30;;;25.00;63.00;;;;;;4969640;28;20441;-63
2021/08/16 08:23:21;;;;;;;4.17;1.50;;;25.00;63.00;;;;;;4972550;28;20413;-63
2021/08/16 08:25:47;;;;;;;6.23;1.97;;;25.00;63.10;;;;;;4967974;28;20435;-63
2021/08/16 08:28:15;;;;;;;3.55;1.60;;;25.00;63.10;;;;;;4972418;28;20394;-63
2021/08/16 08:30:42;;;;;;;3.72;1.70;;;25.00;63.10;;;;;;4969181;28;20400;-62
2021/08/16 08:33:08;;;;;;;3.05;1.50;;;25.00;63.00;;;;;;4973434;28;21392;-63
2021/08/16 08:35:34;;;;;;;3.13;1.60;;;25.00;63.10;;;;;;4965592;28;20407;-63
2021/08/16 08:37:59;;;;;;;3.05;1.70;;;25.00;63.10;;;;;;4964722;28;20739;-62
2021/08/16 08:40:25;;;;;;;3.10;1.80;;;25.00;63.00;;;;;;4965189;28;20948;-63
2021/08/16 08:42:53;;;;;;;3.80;1.80;;;25.00;63.00;;;;;;4964458;28;20760;-62
2021/08/16 08:45:24;;;;;;;5.15;1.60;;;25.00;63.00;;;;;;4965686;28;20397;-63
2021/08/16 08:47:51;;;;;;;3.13;1.67;;;25.00;63.00;;;;;;4965573;28;20448;-63
2021/08/16 08:50:18;;;;;;;3.05;1.50;;;25.00;63.00;;;;;;4968532;28;20400;-62
2021/08/16 08:52:44;;;;;;;3.40;1.60;;;25.00;63.00;;;;;;4969032;28;20429;-63
2021/08/16 08:55:11;;;;;;;3.28;1.70;;;25.00;63.00;;;;;;4967939;28;20400;-63
2021/08/16 08:57:38;;;;;;;2.33;1.50;;;25.00;63.00;;;;;;4967597;28;20896;-63
2021/08/16 09:00:06;;;;;;;2.45;1.40;;;25.00;63.00;;;;;;4967357;28;20423;-63
2021/08/16 09:02:31;;;;;;;3.92;1.75;;;25.00;62.90;;;;;;4967556;28;20459;-63
2021/08/16 09:04:59;;;;;;;2.10;1.38;;;25.00;62.90;;;;;;4967221;28;20424;-63
2021/08/16 09:07:39;;;;;;;1.95;1.30;;;24.90;62.90;;;;;;4968664;28;20400;-63
2021/08/16 09:10:12;;;;;;;2.00;1.60;;;25.00;62.90;;;;;;4966732;28;20400;-63
2021/08/16 09:12:38;;;;;;;2.47;1.48;;;25.00;62.90;;;;;;4972156;28;20738;-63
2021/08/16 09:15:15;;;;;;;2.80;1.60;;;24.90;62.90;;;;;;4998797;28;20423;-63
2021/08/16 09:17:40;;;;;;;2.50;1.52;;;24.90;62.80;;;;;;4999103;28;20675;-63
2021/08/16 09:20:28;;;;;;;2.60;1.60;;;25.00;63.00;;;;;;4967664;28;21463;-62
2021/08/16 09:23:14;;;;;;;3.45;1.67;;;25.00;63.00;;;;;;4970181;28;20914;-64
2021/08/16 09:25:53;;;;;;;2.40;1.40;;;25.00;63.00;;;;;;4970051;28;20434;-63
2021/08/16 09:28:31;;;;;;;3.05;1.50;;;25.00;63.00;;;;;;4967040;28;20396;-62
2021/08/16 09:31:08;;;;;;;2.55;1.55;;;25.00;63.00;;;;;;4971900;28;20482;-62
2021/08/16 09:33:34;;;;;;;2.35;1.45;;;25.00;63.00;;;;;;4971526;28;20892;-63
2021/08/16 09:36:00;;;;;;;2.07;1.30;;;25.00;63.00;;;;;;4966647;28;20483;-62
2021/08/16 09:38:39;;;;;;;2.30;1.77;;;24.90;63.00;;;;;;4971877;28;20400;-63
2021/08/16 09:41:06;;;;;;;2.42;1.40;;;25.00;63.00;;;;;;4981276;28;20428;-63
2021/08/16 09:43:32;;;;;;;2.00;1.52;;;25.00;63.00;;;;;;4970403;28;20396;-63
2021/08/16 09:46:00;;;;;;;2.92;1.60;;;25.00;63.00;;;;;;4966906;28;20410;-63
2021/08/16 09:48:26;;;;;;;2.80;1.50;;;24.90;63.00;;;;;;4966103;28;20424;-63
2021/08/16 09:50:55;;;;;;;2.15;1.40;;;24.90;62.90;;;;;;4971717;28;20416;-63
2021/08/16 09:53:23;;;;;;;2.17;1.35;;;24.90;62.90;;;;;;4973909;28;20399;-62
2021/08/16 09:56:02;;;;;;;2.67;1.55;;;24.90;62.90;;;;;;5003057;28;20423;-63
2021/08/16 09:58:28;;;;;;;1.92;1.40;;;24.90;62.90;;;;;;4965218;28;20408;-62
2021/08/16 10:00:55;;;;;;;2.60;1.60;;;24.90;62.90;;;;;;4966574;28;20427;-62
2021/08/16 10:03:21;;;;;;;2.60;1.60;;;24.90;62.90;;;;;;4971171;28;20403;-62
2021/08/16 10:05:49;;;;;;;3.28;1.60;;;25.00;63.00;;;;;;4971232;28;20474;-62
2021/08/16 10:08:21;;;;;;;2.45;1.50;;;24.90;62.90;;;;;;4972137;28;20404;-63
2021/08/16 10:10:48;;;;;;;2.28;1.50;;;25.00;63.00;;;;;;4971265;28;20392;-63
2021/08/16 10:13:14;;;;;;;2.60;1.60;;;24.90;63.00;;;;;;4971343;28;20951;-63
2021/08/16 10:15:44;;;;;;;1.92;1.40;;;24.90;62.90;;;;;;4966158;28;20923;-62
2021/08/16 10:18:50;;;;;;;1.95;1.48;;;24.90;63.00;;;;;;4971788;28;21278;-63
2021/08/16 10:21:21;;;;;;;2.00;1.50;;;24.90;63.00;;;;;;4982974;28;20519;-63
2021/08/16 10:23:51;;;;;;;2.20;1.60;;;24.90;63.00;;;;;;4984973;28;20409;-63
2021/08/16 10:26:29;;;;;;;1.93;1.53;;;24.90;63.00;;;;;;4976063;28;20909;-63
2021/08/16 10:29:06;;;;;;;2.00;1.60;;;24.90;63.00;;;;;;4966178;28;20466;-62
2021/08/16 10:31:38;;;;;;;2.00;1.50;;;24.90;63.00;;;;;;4971907;28;20923;-63
2021/08/16 10:34:05;;;;;;;2.10;1.50;;;24.90;63.00;;;;;;4975327;28;20425;-63
2021/08/16 10:36:31;;;;;;;2.47;1.40;;;24.90;63.00;;;;;;4973312;28;20738;-63
2021/08/16 10:39:00;;;;;;;2.50;1.52;;;24.90;63.00;;;;;;4965576;28;20812;-63
2021/08/16 10:41:39;;;;;;;1.80;1.42;;;24.90;63.10;;;;;;4974294;28;20421;-63
2021/08/16 10:44:18;;;;;;;1.75;1.42;;;24.90;63.10;;;;;;4970450;28;20899;-62
2021/08/16 10:47:00;;;;;;;2.15;1.48;;;24.90;63.10;;;;;;4967447;28;20975;-63
2021/08/16 10:49:39;;;;;;;2.50;1.67;;;24.90;63.10;;;;;;4970830;28;20425;-63
2021/08/16 10:52:17;;;;;;;2.33;1.50;;;24.90;63.10;;;;;;4977819;28;20403;-62
2021/08/16 10:54:43;;;;;;;2.20;1.50;;;24.90;63.10;;;;;;4965008;28;20508;-63
2021/08/16 10:57:10;;;;;;;2.42;1.50;;;24.90;63.10;;;;;;4970695;28;20396;-63
2021/08/16 10:59:36;;;;;;;1.90;1.50;;;24.90;63.10;;;;;;5002208;28;20819;-62
2021/08/16 11:02:02;;;;;;;3.60;1.63;;;24.90;63.20;;;;;;4971028;28;20404;-63
2021/08/16 11:04:33;;;;;;;1.67;1.27;;;24.90;63.10;;;;;;4963780;28;20396;-63
2021/08/16 11:07:07;;;;;;;2.28;1.48;;;24.90;63.10;;;;;;4972143;28;20447;-63
2021/08/16 11:09:35;;;;;;;2.30;1.55;;;24.90;63.10;;;;;;4970650;28;20396;-63
2021/08/16 11:12:08;;;;;;;2.50;1.30;;;24.90;63.10;;;;;;4973400;28;20406;-63
2021/08/16 11:14:38;;;;;;;7.72;1.77;;;24.90;63.10;;;;;;4975732;28;20393;-63
2021/08/16 11:17:05;;;;;;;2.92;1.80;;;24.90;63.30;;;;;;4965023;28;20392;-63
2021/08/16 11:19:45;;;;;;;3.63;1.80;;;24.90;63.30;;;;;;4975770;28;20435;-63
2021/08/16 11:22:12;;;;;;;3.80;1.70;;;24.90;63.30;;;;;;4968701;28;20407;-63
2021/08/16 11:24:39;;;;;;;3.42;1.30;;;24.90;63.30;;;;;;4968627;28;20400;-63
2021/08/16 11:27:10;;;;;;;2.50;1.35;;;25.00;63.40;;;;;;4969031;28;20447;-63
2021/08/16 11:29:37;;;;;;;3.78;1.58;;;24.90;63.30;;;;;;4969167;28;20389;-63
2021/08/16 11:32:04;;;;;;;3.20;1.58;;;24.90;63.30;;;;;;5000208;28;20392;-62
2021/08/16 11:34:45;;;;;;;2.75;1.63;;;24.90;63.30;;;;;;4969004;28;20389;-63
2021/08/16 11:37:13;;;;;;;2.60;1.50;;;24.90;63.30;;;;;;4974228;28;20985;-63
2021/08/16 11:39:39;;;;;;;3.22;1.52;;;24.90;63.30;;;;;;4967853;28;21014;-62
2021/08/16 11:42:05;;;;;;;3.40;1.80;;;24.90;63.40;;;;;;4970962;28;20393;-63
2021/08/16 11:44:32;;;;;;;3.75;1.60;;;24.90;63.40;;;;;;4970435;28;20398;-63
2021/08/16 11:47:03;;;;;;;2.83;1.50;;;25.00;63.70;;;;;;4968666;28;20392;-63
2021/08/16 11:49:37;;;;;;;4.40;2.10;;;25.00;63.50;;;;;;4971988;28;20445;-62
2021/08/16 11:52:05;;;;;;;3.20;1.80;;;25.00;63.50;;;;;;4968089;28;20423;-63
2021/08/16 11:54:33;;;;;;;4.37;1.90;;;25.00;63.50;;;;;;4962531;28;20797;-62
2021/08/16 11:57:04;;;;;;;3.42;1.95;;;25.00;63.40;;;;;;4970654;28;20424;-62
2021/08/16 11:59:30;;;;;;;4.53;2.30;;;25.00;63.40;;;;;;4967663;28;20530;-63
2021/08/16 12:01:59;;;;;;;3.65;2.13;;;25.00;63.30;;;;;;4968173;28;20401;-63
2021/08/16 12:04:25;;;;;;;4.35;2.53;;;25.00;63.20;;;;;;4967515;28;20388;-63
2021/08/16 12:06:52;;;;;;;3.58;2.10;;;25.00;63.20;;;;;;4968832;28;20722;-62
2021/08/16 12:09:19;;;;;;;3.97;2.30;;;25.00;63.20;;;;;;4968509;28;20403;-63
2021/08/16 12:11:56;;;;;;;4.68;2.50;;;25.00;63.20;;;;;;4968624;28;20515;-63
2021/08/16 12:14:33;;;;;;;2.95;2.15;;;25.00;63.20;;;;;;4967623;28;20474;-63
2021/08/16 12:16:59;;;;;;;3.72;2.03;;;25.10;63.30;;;;;;4964615;28;20466;-63
2021/08/16 12:19:25;;;;;;;3.28;2.20;;;25.10;63.30;;;;;;4968328;28;20814;-63
2021/08/16 12:22:03;;;;;;;3.92;2.20;;;25.10;63.50;;;;;;4968117;28;20787;-62
2021/08/16 12:24:29;;;;;;;4.50;2.30;;;25.10;63.40;;;;;;5004505;28;20767;-63
2021/08/16 12:27:04;;;;;;;4.03;1.90;;;25.10;63.50;;;;;;4970246;28;20393;-63
2021/08/16 12:29:45;;;;;;;3.05;1.90;;;25.10;63.50;;;;;;4974363;28;20395;-63
2021/08/16 12:32:23;;;;;;;3.03;1.95;;;25.10;63.40;;;;;;4969694;28;20479;-63
2021/08/16 12:34:50;;;;;;;2.47;2.00;;;25.10;63.30;;;;;;4975024;28;20423;-63
2021/08/16 12:37:26;;;;;;;3.67;2.08;;;25.10;63.40;;;;;;4973671;28;20420;-62
2021/08/16 12:39:52;;;;;;;2.70;1.80;;;25.10;63.30;;;;;;4969858;28;20512;-63
2021/08/16 12:42:25;;;;;;;3.45;2.03;;;25.10;63.20;;;;;;4967766;28;20769;-63
2021/08/16 12:44:53;;;;;;;2.92;1.90;;;25.10;63.30;;;;;;4970289;28;20403;-63
2021/08/16 12:47:45;;;;;;;3.80;2.10;;;25.10;63.30;;;;;;4972902;28;20459;-62
2021/08/16 12:50:11;;;;;;;2.92;1.80;;;25.10;63.30;;;;;;4982478;28;20414;-63